Time;durP1;ratioP1;P1;durP2;ratioP2;P2;SDS_P1;SDS_P2;PMS_P1;PMS_P2;Temp;Humidity;BMP_temperature;BMP_pressure;BME280_temperature;BME280_humidity;BME280_pressure;Samples;Min_cycle;Max_cycle;Signal;HPM_P1;HPM_P2
2022/05/05 00:01:19;;;;;;;1.38;1.02;;;14.30;99.90;;;;;;5055358;28;20043;-76
2022/05/05 00:03:45;;;;;;;0.57;0.52;;;14.20;99.90;;;;;;5057703;28;20021;-76
2022/05/05 00:06:10;;;;;;;0.38;0.35;;;14.20;99.90;;;;;;5060230;28;20043;-76
2022/05/05 00:08:36;;;;;;;0.77;0.77;;;14.20;99.90;;;;;;5062466;28;20123;-76
2022/05/05 00:16:30;;;;;;;3.03;1.67;;;14.10;99.90;;;;;;5058319;28;20398;-77
2022/05/05 00:18:55;;;;;;;0.25;0.25;;;14.10;99.90;;;;;;5059326;28;20095;-76
2022/05/05 00:21:22;;;;;;;3.10;0.85;;;14.10;99.90;;;;;;5062066;28;20032;-77
2022/05/05 00:23:47;;;;;;;0.32;0.32;;;14.10;99.90;;;;;;5061884;28;20060;-77
2022/05/05 00:26:12;;;;;;;0.35;0.35;;;14.10;99.90;;;;;;5061622;28;20052;-76
2022/05/05 00:28:38;;;;;;;0.45;0.43;;;14.10;99.90;;;;;;5054795;28;20124;-77
2022/05/05 00:31:03;;;;;;;0.50;0.50;;;14.10;99.90;;;;;;5057224;28;20060;-76
2022/05/05 00:33:29;;;;;;;0.88;0.57;;;14.10;99.90;;;;;;5062898;28;20031;-77
2022/05/05 00:35:54;;;;;;;1.65;1.05;;;14.10;99.90;;;;;;5056441;28;20009;-76
2022/05/05 00:38:20;;;;;;;0.73;0.73;;;14.10;99.90;;;;;;5059237;28;20082;-76
2022/05/05 00:40:45;;;;;;;2.47;0.57;;;14.10;99.90;;;;;;5063085;28;20024;-77
2022/05/05 00:43:11;;;;;;;0.80;0.80;;;14.10;99.90;;;;;;5059547;28;20642;-76
2022/05/05 00:45:37;;;;;;;0.65;0.65;;;14.10;99.90;;;;;;5061452;28;20465;-77
2022/05/05 00:48:08;;;;;;;1.27;0.90;;;14.10;99.90;;;;;;5059334;28;20055;-76
2022/05/05 00:50:35;;;;;;;1.20;0.60;;;14.10;99.90;;;;;;5057379;28;20037;-76
2022/05/05 00:53:01;;;;;;;0.40;0.40;;;14.10;99.90;;;;;;5062036;28;20032;-77
2022/05/05 00:55:28;;;;;;;0.60;0.47;;;14.10;99.90;;;;;;5061746;28;20048;-77
2022/05/05 00:57:53;;;;;;;2.08;1.02;;;14.10;99.90;;;;;;5058083;28;20064;-77
2022/05/05 01:00:19;;;;;;;0.68;0.63;;;14.00;99.90;;;;;;5060013;28;20125;-77
2022/05/05 01:02:46;;;;;;;0.75;0.75;;;14.00;99.90;;;;;;5060164;28;20025;-76
2022/05/05 01:05:12;;;;;;;0.85;0.65;;;14.00;99.90;;;;;;5061830;28;20107;-76
2022/05/05 01:07:38;;;;;;;0.52;0.52;;;14.00;99.90;;;;;;5058088;28;20032;-77
2022/05/05 01:10:04;;;;;;;2.40;1.10;;;13.90;99.90;;;;;;5060549;28;20036;-77
2022/05/05 01:12:31;;;;;;;0.65;0.65;;;13.90;99.90;;;;;;5056974;28;20044;-76
2022/05/05 01:14:59;;;;;;;0.90;0.90;;;13.80;99.90;;;;;;5062651;28;20025;-77
2022/05/05 01:17:29;;;;;;;1.80;0.60;;;13.90;99.90;;;;;;5064109;28;20037;-77
2022/05/05 01:19:54;;;;;;;0.40;0.40;;;13.90;99.90;;;;;;5058500;28;20024;-76
2022/05/05 01:22:20;;;;;;;0.15;0.15;;;13.90;99.90;;;;;;5059913;28;20481;-76
2022/05/05 01:30:13;;;;;;;46.58;0.93;;;13.80;99.90;;;;;;5057685;28;20798;-77
2022/05/05 01:32:39;;;;;;;0.30;0.20;;;13.80;99.90;;;;;;5057654;28;20108;-76
2022/05/05 01:35:05;;;;;;;14.80;1.02;;;13.80;99.90;;;;;;5060754;28;20090;-77
2022/05/05 01:37:31;;;;;;;0.03;0.03;;;13.80;99.90;;;;;;5058122;28;20423;-76
2022/05/05 01:39:57;;;;;;;1.40;0.77;;;13.80;99.90;;;;;;5056101;28;20032;-77
2022/05/05 01:42:22;;;;;;;0.13;0.13;;;13.70;99.90;;;;;;5062223;28;20066;-77
2022/05/05 01:44:48;;;;;;;0.47;0.47;;;13.70;99.90;;;;;;5059254;28;20029;-77
2022/05/05 01:47:13;;;;;;;0.00;0.00;;;13.60;99.90;;;;;;5063121;28;20028;-76
2022/05/05 01:49:39;;;;;;;0.47;0.47;;;13.60;99.90;;;;;;5059884;28;20074;-77
2022/05/05 01:52:08;;;;;;;0.60;0.60;;;13.60;99.90;;;;;;5056952;28;20125;-77
2022/05/05 01:54:34;;;;;;;0.40;0.40;;;13.60;99.90;;;;;;5056679;28;20725;-76
2022/05/05 01:57:00;;;;;;;0.20;0.20;;;13.60;99.90;;;;;;5058381;28;20025;-77
2022/05/05 01:59:25;;;;;;;0.20;0.20;;;13.60;99.90;;;;;;5057783;28;20032;-76
2022/05/05 02:01:51;;;;;;;0.30;0.30;;;13.50;99.90;;;;;;5059514;28;20083;-76
2022/05/05 02:04:16;;;;;;;1.20;0.95;;;13.50;99.90;;;;;;5057536;28;20082;-77
2022/05/05 02:06:41;;;;;;;0.10;0.10;;;13.50;99.90;;;;;;5061416;28;20028;-76
2022/05/05 02:09:07;;;;;;;1.23;0.93;;;13.60;99.90;;;;;;5058105;28;20033;-76
2022/05/05 02:11:32;;;;;;;0.70;0.70;;;13.50;99.90;;;;;;5053708;28;20031;-76
2022/05/05 02:13:58;;;;;;;0.15;0.13;;;13.50;99.90;;;;;;5051658;28;20103;-76
2022/05/05 02:16:23;;;;;;;0.30;0.30;;;13.50;99.90;;;;;;5059894;28;20051;-77
2022/05/05 02:18:49;;;;;;;0.00;0.00;;;13.50;99.90;;;;;;5057142;28;20027;-77
2022/05/05 02:21:14;;;;;;;0.45;0.45;;;13.50;99.90;;;;;;5057027;28;20029;-77
2022/05/05 02:23:40;;;;;;;1.33;0.73;;;13.50;99.90;;;;;;5058136;28;20058;-77
2022/05/05 02:26:05;;;;;;;0.20;0.20;;;13.50;99.90;;;;;;5053725;28;21753;-77
2022/05/05 02:28:31;;;;;;;0.15;0.13;;;13.50;99.90;;;;;;5060980;28;20013;-76
2022/05/05 02:30:57;;;;;;;1.45;0.35;;;13.40;99.90;;;;;;5060435;28;20032;-76
2022/05/05 02:33:23;;;;;;;3.10;1.13;;;13.50;99.90;;;;;;5058561;28;20490;-76
2022/05/05 02:38:42;;;;;;;0.50;0.30;;;13.40;99.90;;;;;;5058979;28;20062;-76
2022/05/05 02:38:43;;;;;;;0.20;0.20;;;13.50;99.90;;;;;;5058735;28;20025;-77
2022/05/05 02:41:08;;;;;;;0.47;0.47;;;13.50;99.90;;;;;;5057684;28;20032;-77
2022/05/05 02:43:34;;;;;;;0.22;0.22;;;13.50;99.90;;;;;;5057458;28;20551;-76
2022/05/05 02:45:59;;;;;;;0.75;0.57;;;13.40;99.90;;;;;;5057867;28;20055;-77
2022/05/05 02:48:25;;;;;;;0.38;0.38;;;13.40;99.90;;;;;;5059050;28;20040;-77
2022/05/05 02:50:50;;;;;;;0.52;0.52;;;13.40;99.90;;;;;;5057495;28;20083;-76
2022/05/05 02:56:00;;;;;;;0.20;0.20;;;13.40;99.90;;;;;;5054888;28;20040;-77
2022/05/05 02:58:28;;;;;;;1.05;0.82;;;13.40;99.90;;;;;;5053934;28;20024;-76
2022/05/05 03:00:53;;;;;;;0.75;0.75;;;13.40;99.90;;;;;;5055797;28;20132;-76
2022/05/05 03:03:19;;;;;;;0.03;0.03;;;13.50;99.90;;;;;;5059689;28;20116;-76
2022/05/05 03:05:44;;;;;;;1.70;1.00;;;13.50;99.90;;;;;;5058606;28;20033;-76
2022/05/05 03:08:10;;;;;;;0.45;0.45;;;13.40;99.90;;;;;;5052109;28;20044;-77
2022/05/05 03:10:37;;;;;;;0.52;0.52;;;13.30;99.90;;;;;;5075435;28;21791;-77
2022/05/05 03:13:03;;;;;;;0.20;0.20;;;13.30;99.90;;;;;;5072698;28;20043;-76
2022/05/05 03:15:28;;;;;;;0.17;0.17;;;13.30;99.90;;;;;;5075736;28;20025;-76
2022/05/05 03:17:54;;;;;;;1.58;1.13;;;13.30;99.90;;;;;;5076558;28;20051;-76
2022/05/05 03:20:19;;;;;;;1.30;1.05;;;13.30;99.90;;;;;;5077591;28;20059;-77
2022/05/05 03:22:45;;;;;;;0.00;0.00;;;13.20;99.90;;;;;;5071315;28;20032;-77
2022/05/05 03:25:10;;;;;;;0.52;0.45;;;13.30;99.90;;;;;;5071573;28;20051;-77
2022/05/05 03:27:37;;;;;;;0.47;0.47;;;13.30;99.90;;;;;;5072822;28;20020;-76
2022/05/05 03:30:03;;;;;;;0.68;0.68;;;13.30;99.90;;;;;;5072909;28;20036;-76
2022/05/05 03:32:29;;;;;;;0.75;0.75;;;13.20;99.90;;;;;;5073575;28;20020;-77
2022/05/05 03:34:55;;;;;;;0.22;0.22;;;13.30;99.90;;;;;;5076031;28;20082;-77
2022/05/05 03:37:20;;;;;;;1.73;0.75;;;13.30;99.90;;;;;;5082491;28;20431;-77
2022/05/05 03:39:46;;;;;;;0.55;0.55;;;13.30;99.90;;;;;;5074663;28;20028;-77
2022/05/05 03:42:12;;;;;;;1.20;0.80;;;13.30;99.90;;;;;;5068049;28;20904;-76
2022/05/05 03:44:37;;;;;;;0.52;0.52;;;13.20;99.90;;;;;;5074298;28;20645;-76
2022/05/05 03:47:03;;;;;;;5.40;0.68;;;13.20;99.90;;;;;;5076302;28;20062;-76
2022/05/05 03:49:29;;;;;;;0.90;0.90;;;13.20;99.90;;;;;;5080861;28;20077;-76
2022/05/05 03:51:56;;;;;;;0.98;0.55;;;13.20;99.90;;;;;;5074765;28;20032;-77
2022/05/05 03:54:23;;;;;;;0.43;0.40;;;13.20;99.90;;;;;;5070401;28;20032;-76
2022/05/05 03:56:49;;;;;;;0.20;0.20;;;13.10;99.90;;;;;;5075273;28;20090;-76
2022/05/05 03:59:14;;;;;;;1.35;0.70;;;13.00;99.90;;;;;;5082711;28;20491;-76
2022/05/05 04:01:40;;;;;;;1.10;0.47;;;13.00;99.90;;;;;;5077087;28;20537;-76
2022/05/05 04:04:05;;;;;;;0.30;0.30;;;13.00;99.90;;;;;;5072551;28;20024;-77
2022/05/05 04:06:31;;;;;;;0.22;0.22;;;13.00;99.90;;;;;;5072831;28;20033;-76
2022/05/05 04:08:58;;;;;;;1.95;0.65;;;13.00;99.90;;;;;;5076574;28;20039;-76
2022/05/05 04:11:23;;;;;;;0.75;0.65;;;13.00;99.90;;;;;;5078121;28;20564;-77
2022/05/05 04:13:50;;;;;;;2.05;1.38;;;13.10;99.90;;;;;;5077686;28;20481;-76
2022/05/05 04:16:15;;;;;;;1.55;1.27;;;13.10;99.90;;;;;;5080701;28;20123;-78
2022/05/05 04:18:41;;;;;;;3.22;1.05;;;13.10;99.90;;;;;;5084835;28;20488;-75
2022/05/05 04:21:07;;;;;;;1.05;1.05;;;13.00;99.90;;;;;;5086845;28;20047;-78
2022/05/05 04:23:33;;;;;;;3.13;0.52;;;13.10;99.90;;;;;;5084139;28;20479;-78
2022/05/05 04:25:59;;;;;;;0.28;0.28;;;13.10;99.90;;;;;;5087154;28;20043;-76
2022/05/05 04:28:25;;;;;;;0.40;0.40;;;13.00;99.90;;;;;;5083579;28;20453;-76
2022/05/05 04:30:51;;;;;;;0.20;0.20;;;13.00;99.90;;;;;;5090130;28;20031;-76
2022/05/05 04:33:16;;;;;;;0.50;0.50;;;13.00;99.90;;;;;;5077435;28;20512;-78
2022/05/05 04:35:44;;;;;;;1.60;1.00;;;12.90;99.90;;;;;;5080436;28;20397;-76
2022/05/05 04:38:09;;;;;;;0.10;0.10;;;12.90;99.90;;;;;;5076522;28;20028;-75
2022/05/05 04:40:35;;;;;;;0.20;0.20;;;12.80;99.90;;;;;;5081807;28;20031;-76
2022/05/05 04:43:00;;;;;;;1.10;0.55;;;12.80;99.90;;;;;;5080102;28;20050;-76
2022/05/05 04:45:26;;;;;;;0.43;0.43;;;12.90;99.90;;;;;;5078040;28;20020;-76
2022/05/05 04:47:51;;;;;;;0.35;0.35;;;12.90;99.90;;;;;;5080902;28;20016;-76
2022/05/05 04:50:17;;;;;;;0.50;0.50;;;12.90;99.90;;;;;;5079409;28;20028;-76
2022/05/05 04:52:43;;;;;;;0.45;0.40;;;13.00;99.90;;;;;;5079860;28;21850;-76
2022/05/05 04:55:08;;;;;;;0.68;0.68;;;13.00;99.90;;;;;;5081058;28;20138;-75
2022/05/05 04:57:36;;;;;;;0.35;0.35;;;13.00;99.90;;;;;;5079665;28;20028;-76
2022/05/05 05:00:03;;;;;;;0.70;0.28;;;13.10;99.90;;;;;;5080456;28;20509;-76
2022/05/05 05:02:28;;;;;;;1.08;1.05;;;13.20;99.90;;;;;;5079561;28;20028;-76
2022/05/05 05:04:54;;;;;;;0.40;0.40;;;13.20;99.90;;;;;;5078056;28;20032;-76
2022/05/05 05:07:19;;;;;;;3.58;0.82;;;13.30;99.90;;;;;;5076887;28;20107;-76
2022/05/05 05:09:45;;;;;;;0.10;0.10;;;13.50;99.90;;;;;;5077660;28;20407;-76
2022/05/05 05:12:10;;;;;;;0.40;0.40;;;13.50;99.90;;;;;;5079812;28;20441;-76
2022/05/05 05:14:36;;;;;;;1.58;0.35;;;13.50;99.90;;;;;;5077945;28;20020;-75
2022/05/05 05:17:01;;;;;;;0.60;0.60;;;13.60;99.90;;;;;;5076585;28;20056;-76
2022/05/05 05:19:27;;;;;;;1.30;0.55;;;13.60;99.90;;;;;;5079971;28;20055;-76
2022/05/05 05:21:53;;;;;;;0.98;0.52;;;13.50;99.90;;;;;;5079435;28;20032;-76
2022/05/05 05:24:19;;;;;;;0.82;0.60;;;13.60;99.90;;;;;;5078076;28;20037;-76
2022/05/05 05:26:45;;;;;;;0.95;0.22;;;13.60;99.90;;;;;;5077424;28;20035;-75
2022/05/05 05:29:11;;;;;;;0.45;0.45;;;;;;;;;;5072262;28;20475;-75
2022/05/05 05:31:37;;;;;;;1.45;0.95;;;;;;;;;;5068911;28;20120;-75
2022/05/05 05:34:03;;;;;;;0.38;0.38;;;;;;;;;;5069007;28;20036;-76
2022/05/05 05:36:29;;;;;;;1.25;0.57;;;;;;;;;;5074434;28;20086;-79
2022/05/05 05:38:58;;;;;;;0.68;0.68;;;;;;;;;;5077223;28;20646;-77
2022/05/05 05:41:24;;;;;;;1.25;0.30;;;;;;;;;;5084017;28;20691;-74
2022/05/05 05:43:51;;;;;;;0.20;0.20;;;;;;;;;;5071918;28;20421;-73
2022/05/05 05:46:16;;;;;;;0.38;0.38;;;;;;;;;;5075644;28;20028;-75
2022/05/05 05:48:42;;;;;;;0.85;0.55;;;;;;;;;;5077761;28;20351;-75
2022/05/05 05:51:14;;;;;;;0.63;0.45;;;;;;;;;;5076456;28;20024;-76
2022/05/05 05:53:40;;;;;;;3.97;1.02;;;;;;;;;;5076391;28;20040;-79
2022/05/05 05:56:06;;;;;;;0.22;0.22;;;;;;;;;;5073215;28;20042;-77
2022/05/05 05:58:32;;;;;;;0.43;0.43;;;;;;;;;;5068437;28;20436;-76
2022/05/05 06:00:58;;;;;;;0.20;0.20;;;;;;;;;;5073137;28;20032;-78
2022/05/05 06:06:08;;;;;;;1.75;1.08;;;;;;;;;;5074027;28;20078;-78
2022/05/05 06:08:34;;;;;;;5.25;1.42;;;;;;;;;;5074241;28;20437;-77
2022/05/05 06:11:00;;;;;;;0.08;0.08;;;;;;;;;;5078164;28;20044;-77
2022/05/05 06:13:26;;;;;;;1.27;0.52;;;;;;;;;;5070503;28;20028;-76
2022/05/05 06:15:52;;;;;;;1.45;1.02;;;;;;;;;;5076199;28;20494;-77
2022/05/05 06:18:18;;;;;;;0.80;0.38;;;;;;;;;;5074996;28;20111;-77
2022/05/05 06:20:44;;;;;;;0.85;0.75;;;;;;;;;;5071140;28;20028;-74
2022/05/05 06:23:11;;;;;;;1.02;1.02;;;;;;;;;;5073137;28;20086;-76
2022/05/05 06:25:37;;;;;;;0.28;0.28;;;;;;;;;;5073776;28;20252;-75
2022/05/05 06:28:04;;;;;;;1.25;0.50;;;;;;;;;;5076796;28;20038;-80
2022/05/05 06:30:30;;;;;;;0.32;0.32;;;;;;;;;;5065006;28;20116;-77
2022/05/05 06:32:56;;;;;;;0.45;0.45;;;;;;;;;;5069450;28;20397;-77
2022/05/05 06:35:22;;;;;;;6.18;2.67;;;;;;;;;;5076885;28;20009;-77
2022/05/05 06:37:50;;;;;;;0.82;0.73;;;;;;;;;;5075897;28;20414;-78
2022/05/05 06:40:16;;;;;;;0.43;0.30;;;;;;;;;;5059162;28;20107;-78
2022/05/05 06:43:00;;;;;;;0.60;0.60;;;;;;;;;;5070404;28;20110;-76
2022/05/05 06:45:27;;;;;;;1.80;1.25;;;;;;;;;;5075506;28;20081;-76
2022/05/05 06:47:54;;;;;;;0.30;0.30;;;;;;;;;;5073785;28;20024;-76
2022/05/05 06:50:21;;;;;;;0.77;0.77;;;;;;;;;;5072958;28;20071;-76
2022/05/05 06:53:06;;;;;;;0.52;0.52;;;;;;;;;;5067179;28;20423;-76
2022/05/05 06:55:31;;;;;;;1.98;1.23;;;;;;;;;;5062716;28;20028;-76
2022/05/05 06:57:57;;;;;;;0.47;0.47;;;;;;;;;;5066177;28;20021;-76
2022/05/05 07:00:23;;;;;;;0.73;0.70;;;;;;;;;;5073004;28;20035;-76
2022/05/05 07:02:49;;;;;;;0.85;0.60;;;;;;;;;;5071821;28;20111;-77
2022/05/05 07:05:24;;;;;;;0.50;0.50;;;;;;;;;;5087094;28;20024;-77
2022/05/05 07:07:51;;;;;;;2.28;1.30;;;;;;;;;;5085008;28;20104;-78
2022/05/05 07:13:25;;;;;;;0.57;0.57;;;;;;;;;;5020191;28;20759;-77
2022/05/05 07:15:52;;;;;;;1.65;1.00;;;;;;;;;;5014366;28;20029;-77
2022/05/05 07:18:18;;;;;;;0.40;0.40;;;;;;;;;;5043589;28;20494;-77
2022/05/05 07:20:44;;;;;;;0.68;0.68;;;;;;;;;;5078059;28;20032;-76
2022/05/05 07:23:14;;;;;;;0.50;0.50;;;;;;;;;;5070850;28;20028;-76
2022/05/05 07:25:43;;;;;;;0.57;0.57;;;;;;;;;;5076760;28;20147;-76
2022/05/05 07:28:10;;;;;;;0.43;0.43;;;;;;;;;;5079454;28;20028;-77
2022/05/05 07:30:36;;;;;;;0.10;0.10;;;;;;;;;;5074730;28;20024;-76
2022/05/05 07:33:02;;;;;;;0.32;0.30;;;;;;;;;;5072198;28;20031;-77
2022/05/05 07:35:28;;;;;;;0.10;0.10;;;;;;;;;;5067860;28;20028;-76
2022/05/05 07:37:54;;;;;;;0.20;0.20;;;;;;;;;;5071287;28;20024;-75
2022/05/05 07:40:20;;;;;;;0.20;0.20;;;;;;;;;;5076950;28;20024;-78
2022/05/05 07:42:46;;;;;;;2.60;1.00;;;;;;;;;;5081399;28;20478;-77
2022/05/05 07:45:12;;;;;;;0.98;0.47;;;;;;;;;;5082380;28;20031;-78
2022/05/05 07:47:37;;;;;;;0.90;0.65;;;;;;;;;;5081851;28;20040;-78
2022/05/05 07:50:04;;;;;;;0.82;0.57;;;;;;;;;;5078002;28;20029;-80
2022/05/05 07:52:30;;;;;;;0.45;0.40;;;;;;;;;;5072084;28;20036;-79
2022/05/05 07:54:56;;;;;;;1.17;0.45;;;;;;;;;;5079523;28;20028;-80
2022/05/05 07:57:22;;;;;;;0.35;0.15;;;;;;;;;;5079473;28;20050;-80
2022/05/05 07:59:48;;;;;;;0.10;0.10;;;;;;;;;;5078918;28;20505;-80
2022/05/05 08:02:15;;;;;;;0.50;0.30;;;;;;;;;;5074452;28;20039;-80
2022/05/05 08:04:42;;;;;;;1.38;0.80;;;;;;;;;;5080045;28;20128;-80
2022/05/05 08:07:08;;;;;;;0.43;0.43;;;;;;;;;;5084215;28;20534;-80
2022/05/05 08:09:34;;;;;;;0.32;0.30;;;;;;;;;;5083957;28;20105;-80
2022/05/05 08:12:00;;;;;;;0.08;0.08;;;;;;;;;;5068386;28;20024;-80
2022/05/05 08:14:29;;;;;;;0.20;0.20;;;;;;;;;;5082098;28;20485;-81
2022/05/05 08:16:55;;;;;;;0.93;0.52;;;;;;;;;;5078790;28;20028;-80
2022/05/05 08:19:21;;;;;;;0.30;0.30;;;;;;;;;;5080697;28;20036;-80
2022/05/05 08:21:48;;;;;;;1.65;1.13;;;;;;;;;;5076554;28;20054;-81
2022/05/05 08:29:43;;;;;;;5.35;1.00;;;;;;;;;;5076954;28;20140;-81
2022/05/05 08:32:09;;;;;;;2.05;0.98;;;;;;;;;;5078985;28;20028;-81
2022/05/05 08:34:35;;;;;;;0.30;0.30;;;;;;;;;;5082552;28;20043;-81
2022/05/05 08:37:01;;;;;;;1.10;1.02;;;;;;;;;;5081361;28;20114;-81
2022/05/05 08:39:27;;;;;;;1.20;0.70;;;;;;;;;;5078990;28;20036;-80
2022/05/05 08:41:56;;;;;;;3.58;2.00;;;;;;;;;;5079825;28;20568;-81
2022/05/05 08:44:22;;;;;;;0.65;0.65;;;;;;;;;;5067713;28;20032;-81
2022/05/05 08:46:50;;;;;;;0.73;0.45;;;;;;;;;;5077590;28;20111;-81
2022/05/05 08:49:18;;;;;;;0.43;0.43;;;;;;;;;;5070482;28;20074;-81
2022/05/05 08:51:45;;;;;;;2.83;1.38;;;;;;;;;;5075257;28;20024;-80
2022/05/05 08:54:13;;;;;;;0.80;0.80;;;;;;;;;;5075302;28;20391;-81
2022/05/05 08:56:40;;;;;;;3.38;1.35;;;;;;;;;;5073684;28;20024;-81
2022/05/05 08:59:07;;;;;;;0.93;0.77;;;;;;;;;;5073544;28;20383;-81
2022/05/05 09:01:39;;;;;;;0.77;0.73;;;;;;;;;;5079245;28;20050;-81
2022/05/05 09:04:05;;;;;;;0.60;0.60;;;;;;;;;;5080759;28;20032;-81
2022/05/05 09:06:42;;;;;;;0.50;0.50;;;;;;;;;;5073751;28;20038;-81
2022/05/05 09:09:27;;;;;;;0.82;0.50;;;;;;;;;;5071099;28;20390;-79
2022/05/05 09:12:14;;;;;;;0.57;0.57;;;;;;;;;;5079029;28;20225;-80
2022/05/05 09:14:43;;;;;;;1.38;1.15;;;;;;;;;;5069585;28;20267;-80
2022/05/05 09:17:10;;;;;;;0.17;0.17;;;;;;;;;;5075292;28;20119;-81
2022/05/05 09:19:40;;;;;;;0.08;0.08;;;;;;;;;;5082813;28;20130;-79
2022/05/05 09:22:06;;;;;;;0.55;0.55;;;;;;;;;;5081405;28;20028;-81
2022/05/05 09:24:35;;;;;;;0.10;0.10;;;;;;;;;;5077621;28;20020;-80
2022/05/05 09:27:21;;;;;;;0.75;0.57;;;;;;;;;;5074239;28;20016;-81
2022/05/05 09:30:00;;;;;;;1.48;0.35;;;;;;;;;;5078243;28;20028;-82
2022/05/05 09:32:34;;;;;;;1.00;0.70;;;;;;;;;;5070904;28;20383;-81
2022/05/05 09:35:06;;;;;;;0.60;0.60;;;;;;;;;;5056885;28;20020;-80
2022/05/05 09:37:32;;;;;;;0.38;0.22;;;;;;;;;;5077100;28;20028;-81
2022/05/05 09:39:59;;;;;;;0.28;0.28;;;;;;;;;;5070234;28;20428;-80
2022/05/05 09:42:35;;;;;;;0.85;0.65;;;;;;;;;;5071689;28;20025;-80
2022/05/05 09:45:12;;;;;;;0.43;0.43;;;;;;;;;;5072652;28;20217;-81
2022/05/05 09:47:38;;;;;;;0.60;0.60;;;;;;;;;;5079572;28;20035;-81
2022/05/05 09:50:04;;;;;;;0.52;0.45;;;;;;;;;;5076316;28;20028;-81
2022/05/05 09:58:07;;;;;;;0.30;0.30;;;;;;;;;;5084557;28;20066;-80
2022/05/05 10:05:53;;;;;;;0.88;0.82;;;;;;;;;;5084581;28;20058;-80
2022/05/05 10:08:21;;;;;;;0.75;0.75;;;;;;;;;;5075679;28;20117;-81
2022/05/05 10:10:47;;;;;;;0.95;0.88;;;;;;;;;;5077364;28;20127;-81
2022/05/05 10:13:13;;;;;;;1.35;0.88;;;;;;;;;;5068545;28;20682;-80
2022/05/05 10:15:40;;;;;;;0.45;0.32;;;;;;;;;;5068205;28;20043;-80
2022/05/05 10:18:06;;;;;;;0.00;0.00;;;;;;;;;;5079968;28;20115;-81
2022/05/05 10:20:39;;;;;;;0.98;0.90;;;;;;;;;;5078181;28;20047;-81
2022/05/05 10:23:05;;;;;;;0.63;0.60;;;;;;;;;;5077709;28;20036;-81
2022/05/05 10:25:37;;;;;;;0.55;0.55;;;;;;;;;;5080488;28;20036;-79
2022/05/05 10:28:03;;;;;;;2.85;1.10;;;;;;;;;;5081773;28;20141;-80
2022/05/05 10:30:35;;;;;;;1.75;0.73;;;;;;;;;;5078854;28;20044;-79
2022/05/05 10:33:02;;;;;;;2.38;0.95;;;;;;;;;;5073982;28;20120;-79
2022/05/05 10:35:37;;;;;;;19.40;0.93;;;;;;;;;;5076507;28;20020;-79
2022/05/05 10:38:03;;;;;;;0.47;0.38;;;;;;;;;;5082802;28;20039;-79
2022/05/05 10:40:43;;;;;;;0.55;0.55;;;;;;;;;;5071206;28;20119;-80
2022/05/05 10:43:09;;;;;;;0.98;0.22;;;;;;;;;;5066858;28;20541;-80
2022/05/05 10:45:35;;;;;;;1.05;0.60;;;;;;;;;;5074583;28;20032;-80
2022/05/05 10:48:04;;;;;;;0.63;0.55;;;;;;;;;;5076770;28;20023;-80
2022/05/05 10:50:30;;;;;;;0.57;0.40;;;;;;;;;;5079380;28;20047;-81
2022/05/05 10:52:57;;;;;;;1.88;1.50;;;;;;;;;;5076942;28;20023;-81
2022/05/05 10:55:26;;;;;;;0.28;0.28;;;;;;;;;;5078120;28;20028;-81
2022/05/05 10:57:52;;;;;;;0.30;0.30;;;;;;;;;;5074164;28;20078;-80
2022/05/05 11:00:18;;;;;;;0.22;0.22;;;;;;;;;;5075542;28;20036;-79
2022/05/05 11:03:02;;;;;;;0.30;0.10;;;;;;;;;;5073055;28;20460;-79
2022/05/05 11:05:29;;;;;;;0.43;0.43;;;;;;;;;;5078894;28;20031;-82
2022/05/05 11:07:56;;;;;;;3.78;0.88;;;;;;;;;;5064238;28;20021;-78
2022/05/05 11:10:41;;;;;;;2.35;0.73;;;;;;;;;;5079468;28;20040;-80
2022/05/05 11:13:25;;;;;;;0.28;0.28;;;;;;;;;;5076758;28;20086;-80
2022/05/05 11:21:35;;;;;;;0.50;0.50;;;;;;;;;;5072633;28;20055;-81
2022/05/05 11:24:02;;;;;;;0.28;0.28;;;;;;;;;;5057046;28;20491;-80
2022/05/05 11:26:28;;;;;;;1.13;0.88;;;;;;;;;;5072322;28;20029;-81
2022/05/05 11:28:55;;;;;;;0.47;0.47;;;;;;;;;;5065249;28;20445;-81
2022/05/05 11:31:22;;;;;;;0.70;0.55;;;;;;;;;;5078748;28;20024;-81
2022/05/05 11:33:48;;;;;;;0.47;0.47;;;;;;;;;;5076693;28;20448;-82
2022/05/05 11:36:14;;;;;;;1.73;0.65;;;;;;;;;;5080401;28;20446;-81
2022/05/05 11:38:42;;;;;;;0.40;0.30;;;;;;;;;;5074165;28;20052;-80
2022/05/05 11:41:08;;;;;;;0.85;0.75;;;;;;;;;;5081570;28;20824;-81
2022/05/05 11:46:19;;;;;;;0.73;0.73;;;;;;;;;;5080659;28;20035;-80
2022/05/05 11:48:53;;;;;;;0.40;0.40;;;;;;;;;;5076084;28;20032;-80
2022/05/05 11:51:26;;;;;;;0.43;0.30;;;;;;;;;;5078403;28;20050;-80
2022/05/05 11:54:03;;;;;;;0.57;0.57;;;;;;;;;;5069105;28;20530;-81
2022/05/05 11:56:29;;;;;;;0.57;0.57;;;;;;;;;;5082734;28;20095;-80
2022/05/05 12:02:00;;;;;;;0.68;0.68;;;;;;;;;;4984324;28;20031;-80
2022/05/05 12:04:27;;;;;;;1.17;0.57;;;;;;;;;;5060047;28;20436;-79
2022/05/05 12:06:53;;;;;;;0.50;0.40;;;;;;;;;;5073231;28;20422;-79
2022/05/05 12:09:21;;;;;;;0.38;0.38;;;;;;;;;;5072778;28;20043;-80
2022/05/05 12:11:47;;;;;;;0.30;0.25;;;;;;;;;;5051582;28;20036;-78
2022/05/05 12:14:13;;;;;;;0.40;0.40;;;;;;;;;;5080721;28;20021;-80
2022/05/05 12:16:39;;;;;;;3.20;0.35;;;;;;;;;;5076646;28;20192;-79
2022/05/05 12:19:15;;;;;;;1.45;0.55;;;;;;;;;;5081613;28;20433;-81
2022/05/05 12:21:54;;;;;;;0.65;0.65;;;;;;;;;;5074713;28;20045;-80
2022/05/05 12:24:22;;;;;;;0.20;0.20;;;;;;;;;;5075354;28;20115;-80
2022/05/05 12:26:48;;;;;;;0.10;0.10;;;;;;;;;;5078445;28;20040;-80
2022/05/05 12:29:15;;;;;;;0.40;0.40;;;;;;;;;;5079981;28;20496;-81
2022/05/05 12:31:52;;;;;;;4.53;0.65;;;;;;;;;;5075427;28;20131;-81
2022/05/05 12:34:25;;;;;;;0.98;0.63;;;;;;;;;;5079571;28;20111;-81
2022/05/05 12:37:08;;;;;;;1.27;1.17;;;;;;;;;;5075985;28;20028;-81
2022/05/05 12:39:34;;;;;;;0.50;0.50;;;;;;;;;;5074260;28;20399;-81
2022/05/05 12:42:00;;;;;;;1.40;0.88;;;;;;;;;;5079287;28;20020;-82
2022/05/05 12:44:31;;;;;;;0.35;0.35;;;;;;;;;;5082525;28;20084;-81
2022/05/05 12:46:57;;;;;;;;;;;;;;;;;;5074506;28;20032;-76
2022/05/05 12:49:35;;;;;;;0.20;0.20;;;;;;;;;;5074311;28;19923;-77
2022/05/05 12:52:02;;;;;;;0.73;0.73;;;;;;;;;;5083416;28;20378;-78
2022/05/05 12:59:57;;;;;;;0.30;0.30;;;;;;;;;;5074362;28;20075;-79
2022/05/05 13:02:26;;;;;;;1.15;0.73;;;;;;;;;;5074542;28;20048;-80
2022/05/05 13:04:52;;;;;;;0.20;0.20;;;;;;;;;;5078004;28;20034;-79
2022/05/05 13:07:19;;;;;;;0.63;0.32;;;;;;;;;;5073899;28;20027;-81
2022/05/05 13:09:45;;;;;;;0.32;0.32;;;;;;;;;;5072568;28;20044;-80
2022/05/05 13:12:11;;;;;;;1.85;1.20;;;;;;;;;;5071567;28;20044;-78
2022/05/05 13:14:37;;;;;;;0.55;0.38;;;;;;;;;;5076819;28;20042;-79
2022/05/05 13:17:03;;;;;;;1.13;0.98;;;;;;;;;;5076803;28;20449;-79
2022/05/05 13:19:29;;;;;;;1.05;0.80;;;;;;;;;;5075858;28;20024;-79
2022/05/05 13:21:56;;;;;;;1.17;0.80;;;;;;;;;;5072383;28;20032;-78
2022/05/05 13:24:22;;;;;;;0.35;0.32;;;;;;;;;;5081209;28;20386;-78
2022/05/05 13:26:48;;;;;;;0.50;0.40;;;;;;;;;;5067291;28;20032;-79
2022/05/05 13:29:14;;;;;;;0.10;0.10;;;;;;;;;;5074891;28;20032;-79
2022/05/05 13:31:40;;;;;;;0.10;0.10;;;;;;;;;;5079815;28;20028;-78
2022/05/05 13:34:06;;;;;;;1.85;1.40;;;;;;;;;;5076286;28;20054;-79
2022/05/05 13:36:33;;;;;;;0.20;0.20;;;;;;;;;;5080239;28;20375;-79
2022/05/05 13:38:59;;;;;;;0.75;0.75;;;;;;;;;;5081140;28;20107;-78
2022/05/05 13:41:31;;;;;;;2.22;0.90;;;;;;;;;;5076285;28;20036;-78
2022/05/05 13:43:57;;;;;;;1.10;0.63;;;;;;;;;;5078480;28;20048;-77
2022/05/05 13:46:23;;;;;;;0.22;0.22;;;;;;;;;;5077961;28;20032;-78
2022/05/05 13:48:49;;;;;;;0.93;0.93;;;;;;;;;;5075283;28;20077;-77
2022/05/05 13:51:15;;;;;;;0.30;0.30;;;;;;;;;;5076961;28;20028;-78
2022/05/05 13:53:41;;;;;;;0.40;0.40;;;;;;;;;;5075266;28;20020;-79
2022/05/05 13:56:09;;;;;;;1.55;0.70;;;;;;;;;;5076971;28;20031;-79
2022/05/05 13:58:35;;;;;;;0.20;0.20;;;;;;;;;;5075294;28;20406;-78
2022/05/05 14:01:01;;;;;;;0.73;0.73;;;;;;;;;;5072062;28;20470;-78
2022/05/05 14:03:28;;;;;;;0.40;0.35;;;;;;;;;;5072175;28;20043;-78
2022/05/05 14:05:54;;;;;;;0.40;0.40;;;;;;;;;;5074233;28;20425;-79
2022/05/05 14:13:49;;;;;;;0.28;0.25;;;;;;;;;;5076716;28;20032;-78
2022/05/05 14:16:15;;;;;;;0.08;0.08;;;;;;;;;;5078636;28;20031;-78
2022/05/05 14:18:40;;;;;;;0.40;0.40;;;;;;;;;;5081286;28;20019;-78
2022/05/05 14:21:06;;;;;;;0.45;0.45;;;;;;;;;;5082201;28;20522;-78
2022/05/05 14:23:33;;;;;;;0.10;0.10;;;;;;;;;;5072238;28;20375;-77
2022/05/05 14:26:11;;;;;;;2.92;1.10;;;;;;;;;;5068628;28;20106;-78
2022/05/05 14:28:37;;;;;;;3.50;1.85;;;;;;;;;;5071457;28;20044;-78
2022/05/05 14:31:03;;;;;;;0.60;0.60;;;;;;;;;;5074493;28;20134;-78
2022/05/05 14:33:32;;;;;;;4.10;1.58;;;;;;;;;;5069837;28;20020;-79
2022/05/05 14:35:57;;;;;;;0.57;0.40;;;;;;;;;;5077921;28;20063;-77
2022/05/05 14:38:23;;;;;;;0.20;0.20;;;;;;;;;;5076895;28;20482;-77
2022/05/05 14:40:49;;;;;;;0.35;0.35;;;;;;;;;;5077617;28;20028;-78
2022/05/05 14:43:15;;;;;;;1.00;0.75;;;;;;;;;;5078209;28;20912;-77
2022/05/05 14:45:41;;;;;;;0.95;0.68;;;;;;;;;;5068104;28;20505;-77
2022/05/05 14:48:07;;;;;;;0.43;0.43;;;;;;;;;;5072787;28;20036;-77
2022/05/05 14:50:34;;;;;;;0.55;0.55;;;;;;;;;;5072782;28;20099;-78
2022/05/05 14:52:59;;;;;;;0.63;0.45;;;;;;;;;;5077658;28;20028;-78